createdAt,value
2023-03-19T00:02:15.463Z,48.10
2023-03-19T00:04:43.698Z,48.20
2023-03-19T00:07:11.271Z,48.20
2023-03-19T00:09:38.111Z,48.20
2023-03-19T00:12:05.073Z,48.20
2023-03-19T00:14:32.322Z,48.20
2023-03-19T00:16:59.189Z,48.20
2023-03-19T00:19:29.357Z,48.20
2023-03-19T00:22:02.170Z,48.20
2023-03-19T00:24:34.776Z,48.30
2023-03-19T00:27:03.707Z,48.30
2023-03-19T00:29:39.244Z,48.30
2023-03-19T00:32:06.153Z,48.30
2023-03-19T00:34:32.837Z,48.20
2023-03-19T00:36:59.549Z,48.20
2023-03-19T00:39:26.241Z,48.20
2023-03-19T00:41:53.574Z,48.10
2023-03-19T00:44:20.325Z,48.20
2023-03-19T00:46:53.178Z,48.20
2023-03-19T00:49:19.881Z,48.10
2023-03-19T00:51:49.655Z,48.20
2023-03-19T00:54:16.357Z,48.10
2023-03-19T00:56:43.118Z,48.10
2023-03-19T00:59:09.866Z,48.00
2023-03-19T01:01:36.640Z,48.00
2023-03-19T01:04:03.412Z,48.00
2023-03-19T01:06:30.252Z,48.10
2023-03-19T01:08:56.956Z,48.00
2023-03-19T01:11:23.721Z,48.00
2023-03-19T01:13:50.447Z,48.00
2023-03-19T01:16:17.188Z,48.00
2023-03-19T01:18:43.905Z,48.00
2023-03-19T01:21:16.882Z,48.60
2023-03-19T01:23:43.561Z,48.10
2023-03-19T01:26:10.326Z,48.00
2023-03-19T01:28:37.349Z,48.00
2023-03-19T01:31:07.456Z,48.10
2023-03-19T01:33:34.214Z,48.10
2023-03-19T01:36:03.961Z,48.10
2023-03-19T01:38:30.841Z,48.10
2023-03-19T01:40:57.544Z,48.00
2023-03-19T01:43:24.897Z,48.00
2023-03-19T01:45:52.232Z,48.00
2023-03-19T01:48:29.514Z,48.10
2023-03-19T01:50:56.330Z,48.10
2023-03-19T01:53:27.045Z,48.10
2023-03-19T01:55:55.227Z,48.00
2023-03-19T01:58:24.248Z,48.00
2023-03-19T02:00:52.556Z,48.00
2023-03-19T02:03:19.343Z,48.00
2023-03-19T02:05:46.586Z,48.00
2023-03-19T02:08:14.209Z,47.90
2023-03-19T02:10:44.646Z,48.00
2023-03-19T02:13:11.717Z,48.00
2023-03-19T02:15:38.523Z,48.00
2023-03-19T02:18:05.395Z,48.00
2023-03-19T02:20:35.242Z,48.00
2023-03-19T02:23:02.021Z,48.00
2023-03-19T02:25:31.148Z,48.00
2023-03-19T02:27:57.991Z,48.00
2023-03-19T02:30:29.043Z,48.00
2023-03-19T02:32:56.032Z,48.00
2023-03-19T02:35:22.736Z,48.60
2023-03-19T02:37:49.462Z,48.00
2023-03-19T02:40:22.934Z,48.00
2023-03-19T02:42:49.602Z,48.00
2023-03-19T02:45:17.103Z,48.00
2023-03-19T02:47:43.790Z,48.00
2023-03-19T02:50:10.597Z,48.00
2023-03-19T02:52:37.266Z,48.60
2023-03-19T02:55:04.150Z,47.90
2023-03-19T02:57:30.961Z,47.90
2023-03-19T02:59:57.643Z,47.90
2023-03-19T03:02:24.372Z,47.90
2023-03-19T03:04:51.121Z,47.90
2023-03-19T03:07:18.126Z,47.90
2023-03-19T03:09:45.176Z,48.10
2023-03-19T03:12:12.189Z,47.90
2023-03-19T03:14:38.867Z,47.90
2023-03-19T03:17:11.754Z,47.90
2023-03-19T03:19:38.493Z,47.90
2023-03-19T03:22:05.655Z,47.90
2023-03-19T03:24:32.496Z,47.90
2023-03-19T03:26:59.220Z,47.90
2023-03-19T03:29:26.151Z,47.90
2023-03-19T03:31:52.954Z,47.90
2023-03-19T03:34:22.735Z,47.90
2023-03-19T03:36:49.547Z,47.90
2023-03-19T03:39:16.323Z,47.90
2023-03-19T03:41:42.952Z,47.90
2023-03-19T03:44:10.248Z,47.80
2023-03-19T03:46:36.937Z,47.90
2023-03-19T03:49:03.546Z,47.90
2023-03-19T03:51:30.424Z,47.80
2023-03-19T03:53:57.019Z,47.90
2023-03-19T03:56:23.632Z,47.90
2023-03-19T03:58:51.268Z,47.90
2023-03-19T04:01:18.220Z,47.90
2023-03-19T04:03:45.381Z,47.90
2023-03-19T04:06:15.819Z,47.90
2023-03-19T04:08:42.475Z,47.90
2023-03-19T04:11:09.232Z,47.90
2023-03-19T04:13:37.214Z,47.80
2023-03-19T04:16:04.652Z,47.90
2023-03-19T04:18:31.540Z,47.80
2023-03-19T04:20:58.185Z,47.80
2023-03-19T04:23:25.062Z,47.90
2023-03-19T04:25:51.855Z,47.80
2023-03-19T04:28:18.442Z,47.80
2023-03-19T04:30:45.147Z,47.90
2023-03-19T04:33:11.969Z,47.70
2023-03-19T04:35:41.607Z,47.80
2023-03-19T04:38:09.023Z,47.80
2023-03-19T04:40:36.247Z,47.80
2023-03-19T04:43:03.246Z,47.70
2023-03-19T04:45:29.894Z,47.90
2023-03-19T04:47:56.832Z,47.80
2023-03-19T04:50:23.697Z,47.80
2023-03-19T04:52:50.563Z,47.80
2023-03-19T04:55:17.162Z,48.50
2023-03-19T04:57:43.801Z,47.80
2023-03-19T05:00:10.965Z,47.80
2023-03-19T05:02:38.478Z,47.90
2023-03-19T05:05:07.948Z,47.90
2023-03-19T05:07:34.649Z,47.80
2023-03-19T05:10:01.637Z,47.80
2023-03-19T05:12:28.260Z,47.70
2023-03-19T05:14:54.992Z,47.70
2023-03-19T05:17:21.677Z,47.90
2023-03-19T05:19:48.717Z,47.80
2023-03-19T05:22:15.406Z,47.90
2023-03-19T05:24:42.038Z,47.70
2023-03-19T05:27:08.676Z,47.80
2023-03-19T05:29:35.334Z,47.80
2023-03-19T05:32:03.189Z,47.70
2023-03-19T05:34:29.992Z,47.70
2023-03-19T05:36:56.603Z,47.70
2023-03-19T05:39:23.307Z,47.80
2023-03-19T05:41:49.926Z,47.70
2023-03-19T05:44:16.791Z,47.70
2023-03-19T05:46:43.735Z,47.90
2023-03-19T05:49:10.671Z,47.70
2023-03-19T05:51:37.279Z,47.80
2023-03-19T05:54:03.974Z,47.70
2023-03-19T05:56:30.573Z,47.70
2023-03-19T05:58:57.235Z,47.70
2023-03-19T06:01:23.863Z,47.70
2023-03-19T06:03:50.574Z,47.70
2023-03-19T06:06:17.355Z,47.70
2023-03-19T06:08:43.990Z,47.70
2023-03-19T06:11:10.660Z,47.70
2023-03-19T06:13:37.465Z,47.70
2023-03-19T06:16:04.183Z,47.70
2023-03-19T06:18:30.997Z,47.60
2023-03-19T06:20:57.567Z,47.70
2023-03-19T06:23:24.148Z,47.70
2023-03-19T06:25:50.961Z,47.60
2023-03-19T06:28:17.532Z,47.70
2023-03-19T06:30:44.377Z,47.60
2023-03-19T06:33:11.055Z,47.70
2023-03-19T06:35:37.798Z,47.70
2023-03-19T06:38:04.460Z,47.60
2023-03-19T06:40:31.139Z,47.70
2023-03-19T06:42:58.195Z,47.60
2023-03-19T06:45:25.305Z,47.60
2023-03-19T06:47:53.560Z,47.70
2023-03-19T06:50:21.811Z,47.60
2023-03-19T06:52:48.399Z,47.60
2023-03-19T06:55:15.154Z,47.60
2023-03-19T06:57:41.856Z,47.60
2023-03-19T07:00:11.693Z,47.60
2023-03-19T07:02:38.377Z,47.70
2023-03-19T07:05:05.436Z,47.70
2023-03-19T07:07:32.279Z,47.70
2023-03-19T07:09:58.867Z,47.70
2023-03-19T07:12:27.876Z,47.70
2023-03-19T07:14:56.100Z,47.80
2023-03-19T07:17:23.078Z,47.80
2023-03-19T07:19:49.723Z,47.70
2023-03-19T07:22:16.346Z,47.70
2023-03-19T07:24:43.111Z,47.90
2023-03-19T07:27:09.888Z,48.00
2023-03-19T07:29:37.140Z,48.00
2023-03-19T07:32:04.030Z,48.00
2023-03-19T07:34:30.793Z,48.00
2023-03-19T07:36:57.550Z,48.70
2023-03-19T07:39:24.157Z,48.00
2023-03-19T07:44:32.656Z,47.80
2023-03-19T07:46:59.413Z,48.00
2023-03-19T07:49:26.315Z,48.10
2023-03-19T07:51:53.024Z,48.20
2023-03-19T07:54:19.785Z,48.30
2023-03-19T07:56:46.898Z,48.20
2023-03-19T07:59:13.593Z,48.20
2023-03-19T08:01:40.526Z,48.20
2023-03-19T08:04:07.303Z,48.30
2023-03-19T08:06:34.365Z,48.30
2023-03-19T08:09:01.213Z,48.30
2023-03-19T08:11:29.933Z,48.60
2023-03-19T08:13:56.662Z,48.70
2023-03-19T08:16:23.381Z,48.70
2023-03-19T08:18:52.056Z,48.80
2023-03-19T08:21:19.286Z,48.80
2023-03-19T08:23:46.245Z,48.20
2023-03-19T08:26:12.946Z,48.20
2023-03-19T08:28:39.699Z,48.80
2023-03-19T08:31:09.912Z,49.00
2023-03-19T08:33:39.740Z,49.10
2023-03-19T08:36:10.755Z,49.00
2023-03-19T08:38:37.787Z,49.10
2023-03-19T08:41:04.823Z,49.00
2023-03-19T08:43:31.848Z,49.10
2023-03-19T08:45:58.757Z,49.00
2023-03-19T08:48:26.383Z,48.70
2023-03-19T08:50:56.738Z,49.50
2023-03-19T08:53:23.895Z,49.10
2023-03-19T08:55:59.085Z,49.00
2023-03-19T08:58:29.231Z,49.00
2023-03-19T09:01:11.395Z,48.80
2023-03-19T09:03:38.729Z,48.60
2023-03-19T09:06:11.598Z,49.20
2023-03-19T09:08:38.808Z,49.30
2023-03-19T09:11:07.116Z,49.40
2023-03-19T09:13:35.170Z,49.40
2023-03-19T09:16:02.416Z,49.40
2023-03-19T09:18:29.375Z,49.40
2023-03-19T09:20:56.453Z,49.40
2023-03-19T09:23:23.888Z,49.40
2023-03-19T09:25:52.278Z,49.40
2023-03-19T09:28:19.200Z,49.50
2023-03-19T09:30:47.109Z,49.80
2023-03-19T09:33:14.206Z,49.40
2023-03-19T09:35:41.061Z,49.60
2023-03-19T09:38:12.704Z,49.90
2023-03-19T09:40:42.274Z,49.90
2023-03-19T09:43:18.326Z,49.90
2023-03-19T09:45:46.299Z,49.90
2023-03-19T09:48:15.332Z,49.90
2023-03-19T09:50:42.571Z,49.80
2023-03-19T09:53:19.433Z,49.90
2023-03-19T09:55:52.802Z,49.80
2023-03-19T09:58:24.107Z,49.80
2023-03-19T10:21:45.562Z,49.90
2023-03-19T10:24:14.307Z,49.70
2023-03-19T10:26:41.864Z,49.80
2023-03-19T10:29:10.998Z,49.70
2023-03-19T10:31:41.466Z,49.70
2023-03-19T10:34:17.662Z,49.50
2023-03-19T10:36:45.909Z,49.60
2023-03-19T10:39:14.903Z,49.80
2023-03-19T10:41:42.211Z,49.60
2023-03-19T10:44:13.876Z,49.60
2023-03-19T10:46:41.182Z,49.70
2023-03-19T10:49:15.258Z,49.70
2023-03-19T10:52:04.331Z,49.80
2023-03-19T10:54:55.526Z,49.80
2023-03-19T10:57:25.221Z,50.00
2023-03-19T10:59:54.369Z,50.00
2023-03-19T11:02:24.538Z,50.10
2023-03-19T11:05:06.166Z,50.30
2023-03-19T11:07:33.189Z,50.40
2023-03-19T11:10:00.358Z,50.60
2023-03-19T11:12:38.063Z,50.70
2023-03-19T11:15:07.818Z,50.40
2023-03-19T11:17:43.233Z,50.40
2023-03-19T11:20:22.267Z,50.30
2023-03-19T11:22:49.422Z,50.20
2023-03-19T11:25:38.008Z,50.10
2023-03-19T11:28:21.030Z,50.20
2023-03-19T11:30:48.631Z,50.40
2023-03-19T11:33:21.376Z,50.70
2023-03-19T11:35:52.468Z,50.10
2023-03-19T11:38:29.006Z,50.10
2023-03-19T11:41:02.328Z,50.10
2023-03-19T11:43:47.019Z,50.20
2023-03-19T11:46:20.645Z,50.80
2023-03-19T11:48:47.807Z,50.20
2023-03-19T11:51:41.845Z,50.10
2023-03-19T11:54:11.001Z,50.10
2023-03-19T11:56:42.681Z,50.10
2023-03-19T11:59:29.523Z,50.20
2023-03-19T12:02:15.181Z,50.30
2023-03-19T12:05:00.464Z,50.40
2023-03-19T12:07:46.189Z,50.50
2023-03-19T12:10:31.869Z,50.40
2023-03-19T12:13:02.407Z,50.70
2023-03-19T12:15:39.926Z,50.90
2023-03-19T12:18:12.883Z,50.90
2023-03-19T12:21:02.659Z,51.10
2023-03-19T12:23:36.696Z,51.10
2023-03-19T12:26:07.217Z,51.40
2023-03-19T12:28:52.703Z,51.40
2023-03-19T12:31:25.774Z,51.60
2023-03-19T12:34:12.173Z,51.70
2023-03-19T12:36:44.054Z,51.70
2023-03-19T12:39:11.821Z,51.70
2023-03-19T12:41:41.661Z,51.70
2023-03-19T12:44:21.798Z,51.80
2023-03-19T12:46:49.811Z,51.80
2023-03-19T12:49:21.283Z,51.80
2023-03-19T12:51:57.230Z,51.80
2023-03-19T12:54:27.898Z,52.10
2023-03-19T12:57:00.713Z,50.60
2023-03-19T12:59:29.823Z,51.20
2023-03-19T13:02:01.995Z,51.80
2023-03-19T13:04:33.894Z,51.40
2023-03-19T13:07:08.712Z,51.40
2023-03-19T13:09:39.316Z,51.80
2023-03-19T13:12:07.908Z,51.80
2023-03-19T13:14:54.014Z,51.40
2023-03-19T13:17:22.327Z,51.80
2023-03-19T13:19:53.990Z,51.80
2023-03-19T13:22:21.779Z,51.80
2023-03-19T13:24:54.714Z,51.80
2023-03-19T13:27:23.674Z,51.70
2023-03-19T13:30:07.460Z,51.00
2023-03-19T13:32:39.996Z,51.50
2023-03-19T13:35:13.777Z,51.50
2023-03-19T13:37:43.669Z,51.60
2023-03-19T13:40:29.276Z,51.50
2023-03-19T13:42:56.341Z,51.60
2023-03-19T13:45:33.447Z,51.50
2023-03-19T13:48:24.463Z,51.40
2023-03-19T13:51:01.908Z,51.50
2023-03-19T13:53:29.208Z,51.40
2023-03-19T13:55:58.020Z,51.30
2023-03-19T13:58:44.026Z,51.30
2023-03-19T14:01:11.986Z,51.70
2023-03-19T14:03:52.629Z,51.60
2023-03-19T14:06:38.363Z,51.60
2023-03-19T14:09:05.571Z,51.70
2023-03-19T14:11:33.680Z,51.10
2023-03-19T14:14:01.630Z,51.40
2023-03-19T14:16:38.458Z,51.50
2023-03-19T14:19:11.495Z,51.60
2023-03-19T14:21:58.898Z,51.50
2023-03-19T14:24:55.665Z,51.00
2023-03-19T14:27:32.189Z,51.40
2023-03-19T14:30:09.055Z,50.60
2023-03-19T14:32:36.712Z,50.90
2023-03-19T14:35:05.101Z,51.50
2023-03-19T14:37:34.590Z,51.70
2023-03-19T14:40:24.647Z,51.20
2023-03-19T14:42:54.456Z,51.60
2023-03-19T14:45:40.199Z,51.60
2023-03-19T14:48:07.281Z,51.90
2023-03-19T14:50:52.890Z,52.30
2023-03-19T14:53:24.751Z,52.30
2023-03-19T14:55:52.451Z,52.40
2023-03-19T14:58:19.364Z,52.80
2023-03-19T15:00:46.802Z,52.90
2023-03-19T15:03:43.195Z,53.80
2023-03-19T15:06:11.346Z,53.30
2023-03-19T15:08:39.705Z,53.50
2023-03-19T15:11:18.913Z,53.80
2023-03-19T15:13:48.579Z,54.00
2023-03-19T15:16:48.264Z,54.10
2023-03-19T15:19:15.206Z,54.60
2023-03-19T15:21:42.108Z,55.10
2023-03-19T15:24:13.514Z,55.20
2023-03-19T15:26:40.478Z,55.60
2023-03-19T15:29:12.099Z,56.10
2023-03-19T15:31:52.117Z,55.90
2023-03-19T15:34:21.497Z,56.50
2023-03-19T15:36:54.763Z,56.20
2023-03-19T15:39:22.216Z,56.30
2023-03-19T15:41:49.025Z,56.80
2023-03-19T15:44:20.669Z,56.90
2023-03-19T15:46:47.450Z,56.60
2023-03-19T15:49:21.466Z,56.90
2023-03-19T15:51:51.550Z,56.50
2023-03-19T15:54:18.639Z,57.10
2023-03-19T15:56:49.231Z,56.80
2023-03-19T15:59:16.006Z,56.80
2023-03-19T16:01:42.872Z,57.20
2023-03-19T16:04:13.703Z,57.30
2023-03-19T16:06:40.525Z,57.20
2023-03-19T16:09:14.682Z,57.40
2023-03-19T16:11:47.571Z,58.10
2023-03-19T16:14:14.517Z,57.60
2023-03-19T16:16:41.794Z,57.90
2023-03-19T16:19:44.072Z,57.60
2023-03-19T16:22:12.700Z,58.00
2023-03-19T16:24:43.070Z,57.80
2023-03-19T16:27:33.144Z,58.00
2023-03-19T16:29:59.877Z,58.00
2023-03-19T16:32:27.262Z,57.70
2023-03-19T16:34:54.632Z,57.90
2023-03-19T16:37:40.328Z,57.80
2023-03-19T16:40:07.226Z,57.50
2023-03-19T16:42:34.015Z,58.00
2023-03-19T16:45:17.306Z,57.10
2023-03-19T16:47:44.643Z,56.90
2023-03-19T16:50:15.398Z,57.60
2023-03-19T16:52:42.641Z,57.70
2023-03-19T16:55:15.962Z,57.60
2023-03-19T16:57:42.691Z,57.90
2023-03-19T17:00:13.333Z,57.70
2023-03-19T17:02:40.046Z,58.20
2023-03-19T17:05:13.137Z,57.90
2023-03-19T17:07:41.767Z,58.20
2023-03-19T17:10:15.320Z,58.20
2023-03-19T17:12:42.116Z,58.00
2023-03-19T17:15:13.948Z,57.70
2023-03-19T17:17:40.634Z,57.20
2023-03-19T17:20:11.089Z,57.60
2023-03-19T17:22:38.092Z,57.00
2023-03-19T17:25:06.669Z,58.40
2023-03-19T17:27:34.708Z,58.80
2023-03-19T17:30:01.559Z,57.70
2023-03-19T17:32:28.767Z,59.00
2023-03-19T17:34:56.618Z,60.40
2023-03-19T17:37:23.397Z,59.80
2023-03-19T17:39:53.275Z,59.70
2023-03-19T17:42:24.063Z,60.00
2023-03-19T17:44:50.798Z,60.50
2023-03-19T17:47:17.921Z,59.10
2023-03-19T17:49:45.255Z,58.80
2023-03-19T17:52:15.738Z,58.40
2023-03-19T17:54:48.638Z,58.50
2023-03-19T17:57:15.606Z,59.10
2023-03-19T17:59:42.277Z,58.80
2023-03-19T18:02:23.554Z,59.30
2023-03-19T18:04:52.761Z,58.60
2023-03-19T18:07:20.178Z,59.50
2023-03-19T18:10:26.698Z,59.80
2023-03-19T18:12:54.763Z,58.90
2023-03-19T18:15:21.780Z,58.60
2023-03-19T18:17:49.175Z,58.50
2023-03-19T18:20:16.585Z,59.10
2023-03-19T18:22:43.401Z,58.50
2023-03-19T18:25:25.855Z,59.10
2023-03-19T18:28:07.554Z,58.90
2023-03-19T18:30:35.239Z,58.50
2023-03-19T18:33:02.851Z,59.70
2023-03-19T18:35:30.485Z,62.40
2023-03-19T18:37:57.294Z,63.50
2023-03-19T18:40:25.103Z,63.90
2023-03-19T18:42:51.810Z,63.80
2023-03-19T18:45:18.570Z,63.10
2023-03-19T18:47:46.178Z,62.50
2023-03-19T18:50:20.056Z,61.80
2023-03-19T18:52:47.268Z,61.20
2023-03-19T18:55:14.167Z,59.30
2023-03-19T18:57:52.326Z,60.20
2023-03-19T19:00:21.096Z,59.80
2023-03-19T19:02:48.057Z,60.50
2023-03-19T19:05:27.711Z,60.40
2023-03-19T19:07:58.197Z,60.50
2023-03-19T19:10:25.622Z,60.70
2023-03-19T19:12:52.795Z,60.80
2023-03-19T19:15:30.472Z,61.20
2023-03-19T19:17:57.818Z,60.60
2023-03-19T19:20:25.593Z,60.30
2023-03-19T19:22:52.526Z,61.20
2023-03-19T19:25:20.571Z,60.30
2023-03-19T19:27:47.977Z,61.30
2023-03-19T19:30:21.050Z,61.00
2023-03-19T19:32:47.856Z,61.50
2023-03-19T19:35:16.019Z,61.40
2023-03-19T19:37:42.750Z,61.20
2023-03-19T19:40:11.608Z,61.40
2023-03-19T19:42:38.289Z,61.70
2023-03-19T19:45:05.264Z,61.70
2023-03-19T19:47:38.014Z,62.20
2023-03-19T19:50:04.962Z,61.80
2023-03-19T19:52:31.907Z,61.50
2023-03-19T19:54:58.735Z,62.20
2023-03-19T19:57:25.526Z,62.10
2023-03-19T19:59:52.299Z,62.40
2023-03-19T20:02:22.708Z,62.10
2023-03-19T20:04:49.462Z,62.30
2023-03-19T20:07:16.219Z,62.30
2023-03-19T20:09:42.948Z,62.10
2023-03-19T20:12:14.783Z,62.20
2023-03-19T20:14:41.820Z,62.20
2023-03-19T20:17:09.752Z,62.00
2023-03-19T20:19:36.436Z,61.90
2023-03-19T20:22:03.372Z,62.20
2023-03-19T20:24:30.065Z,62.10
2023-03-19T20:26:59.874Z,61.90
2023-03-19T20:29:31.144Z,62.20
2023-03-19T20:31:58.343Z,62.10
2023-03-19T20:34:38.455Z,62.10
2023-03-19T20:37:05.650Z,61.80
2023-03-19T20:39:32.351Z,61.80
2023-03-19T20:41:59.050Z,61.80
2023-03-19T20:44:26.022Z,61.70
2023-03-19T20:46:52.790Z,61.70
2023-03-19T20:49:19.575Z,61.80
2023-03-19T20:51:46.352Z,61.60
2023-03-19T20:54:13.083Z,61.50
2023-03-19T20:56:39.849Z,61.60
2023-03-19T20:59:08.955Z,61.40
2023-03-19T21:01:35.692Z,61.60
2023-03-19T21:04:02.417Z,61.40
2023-03-19T21:06:34.625Z,61.40
2023-03-19T21:09:08.912Z,61.50
2023-03-19T21:11:39.763Z,61.40
2023-03-19T21:14:06.875Z,61.40
2023-03-19T21:16:34.296Z,61.30
2023-03-19T21:19:01.598Z,61.20
2023-03-19T21:21:32.506Z,61.30
2023-03-19T21:24:00.646Z,61.10
2023-03-19T21:26:28.416Z,61.20
2023-03-19T21:28:55.634Z,61.20
2023-03-19T21:31:22.771Z,61.00
2023-03-19T21:33:49.812Z,61.10
2023-03-19T21:36:17.015Z,61.10
2023-03-19T21:38:50.943Z,61.00
2023-03-19T21:41:25.001Z,61.10
2023-03-19T21:43:56.188Z,61.00
2023-03-19T21:46:27.131Z,60.90
2023-03-19T21:48:54.513Z,61.00
2023-03-19T21:51:21.391Z,60.80
2023-03-19T21:53:54.269Z,60.90
2023-03-19T21:59:31.809Z,60.90
2023-03-19T22:01:58.493Z,60.70
2023-03-19T22:04:25.265Z,60.80
2023-03-19T22:06:53.080Z,60.70
2023-03-19T22:09:28.956Z,60.70
2023-03-19T22:11:55.836Z,60.80
2023-03-19T22:14:26.827Z,60.60
2023-03-19T22:16:58.113Z,61.50
2023-03-19T22:19:25.899Z,60.70
2023-03-19T22:21:53.993Z,60.50
2023-03-19T22:24:20.980Z,60.70
2023-03-19T22:26:56.497Z,60.50
2023-03-19T22:29:42.124Z,60.70
2023-03-19T22:32:15.864Z,60.70
2023-03-19T22:34:45.867Z,60.60
2023-03-19T22:37:26.346Z,60.70
2023-03-19T22:39:53.235Z,60.60
2023-03-19T22:42:20.063Z,60.70
2023-03-19T22:44:49.866Z,60.60
2023-03-19T22:47:18.433Z,60.60
2023-03-19T22:49:45.104Z,60.50
2023-03-19T22:55:13.624Z,60.50
2023-03-19T22:57:40.691Z,60.50
2023-03-19T23:00:12.163Z,60.50
2023-03-19T23:36:28.863Z,60.20
2023-03-19T23:38:56.498Z,60.30
2023-03-19T23:41:26.190Z,60.20
2023-03-19T23:43:53.215Z,60.20
2023-03-19T23:57:02.861Z,60.00
